Time;durP1;ratioP1;P1;durP2;ratioP2;P2;SDS_P1;SDS_P2;PMS_P1;PMS_P2;Temp;Humidity;BMP_temperature;BMP_pressure;BME280_temperature;BME280_humidity;BME280_pressure;Samples;Min_cycle;Max_cycle;Signal;HPM_P1;HPM_P2
2021/08/06 00:00:16;;;;;;;3.53;1.67;;;;;;;;;;5016550;28;20181;-72
2021/08/06 00:03:20;;;;;;;2.53;1.57;;;;;;;;;;5004884;28;20213;-72
2021/08/06 00:06:27;;;;;;;3.87;1.70;;;;;;;;;;5004362;28;20676;-73
2021/08/06 00:09:34;;;;;;;4.57;2.20;;;;;;;;;;5016238;28;20182;-72
2021/08/06 00:12:39;;;;;;;3.03;1.90;;;;;;;;;;5016513;28;20213;-72
2021/08/06 00:15:43;;;;;;;2.57;1.90;;;;;;;;;;5016314;28;20204;-72
2021/08/06 00:18:49;;;;;;;7.63;2.20;;;;;;;;;;5017697;28;20185;-72
2021/08/06 00:21:53;;;;;;;4.90;1.70;;;;;;;;;;5017695;28;20181;-73
2021/08/06 00:24:57;;;;;;;7.67;2.03;;;;;;;;;;5005404;28;20186;-73
2021/08/06 00:28:02;;;;;;;4.97;1.90;;;;;;;;;;5005861;28;20174;-73
2021/08/06 00:31:06;;;;;;;2.40;1.73;;;;;;;;;;5005655;28;20177;-73
2021/08/06 00:34:11;;;;;;;6.17;1.67;;;;;;;;;;5004468;28;20221;-73
2021/08/06 00:37:17;;;;;;;2.23;2.00;;;;;;;;;;5004222;28;20680;-73
2021/08/06 00:40:25;;;;;;;3.80;1.90;;;;;;;;;;5004431;28;20185;-73
2021/08/06 00:43:32;;;;;;;4.57;2.17;;;;;;;;;;4992592;28;20221;-73
2021/08/06 00:46:40;;;;;;;3.37;2.00;;;;;;;;;;5004018;28;20178;-73
2021/08/06 00:49:46;;;;;;;2.17;1.60;;;;;;;;;;5003895;28;20280;-73
2021/08/06 00:52:52;;;;;;;2.70;1.60;;;;;;;;;;5004064;28;20545;-73
2021/08/06 00:55:59;;;;;;;3.20;1.60;;;;;;;;;;5003963;28;20181;-73
2021/08/06 00:59:03;;;;;;;3.73;2.00;;;;;;;;;;5015888;28;20197;-73
2021/08/06 01:02:29;;;;;;;5.33;1.97;;;;;;;;;;4992434;28;20201;-73
2021/08/06 01:05:40;;;;;;;2.07;1.67;;;;;;;;;;5015846;28;20537;-73
2021/08/06 01:09:03;;;;;;;2.27;1.67;;;;;;;;;;5015614;28;20186;-73
2021/08/06 01:12:20;;;;;;;3.30;1.70;;;;;;;;;;5003633;28;20185;-73
2021/08/06 01:15:27;;;;;;;3.17;1.50;;;;;;;;;;5003705;28;20181;-73
2021/08/06 01:18:34;;;;;;;5.83;1.67;;;;;;;;;;5003617;28;20185;-72
2021/08/06 01:21:45;;;;;;;4.03;1.70;;;;;;;;;;5003522;28;20513;-73
2021/08/06 01:25:07;;;;;;;2.60;1.50;;;;;;;;;;5004146;28;20182;-72
2021/08/06 01:28:29;;;;;;;2.70;1.67;;;;;;;;;;5003734;28;20181;-73
2021/08/06 01:31:37;;;;;;;3.13;1.63;;;;;;;;;;5003885;28;20514;-73
2021/08/06 01:35:03;;;;;;;2.13;1.50;;;;;;;;;;4994815;28;20185;-73
2021/08/06 01:38:09;;;;;;;6.27;1.70;;;;;;;;;;4991483;28;20221;-73
2021/08/06 01:41:32;;;;;;;4.80;1.70;;;;;;;;;;5014651;28;20201;-73
2021/08/06 01:44:47;;;;;;;5.50;1.87;;;;;;;;;;5015452;28;20190;-73
2021/08/06 01:47:54;;;;;;;2.53;1.30;;;;;;;;;;4991935;28;20182;-73
2021/08/06 01:51:12;;;;;;;3.23;1.60;;;;;;;;;;5002894;28;20522;-73
2021/08/06 01:54:21;;;;;;;5.80;1.43;;;;;;;;;;5002655;28;20224;-73
2021/08/06 01:57:26;;;;;;;2.77;1.47;;;;;;;;;;4991432;28;20218;-73
2021/08/06 02:00:32;;;;;;;4.80;1.40;;;;;;;;;;5002757;28;20637;-73
2021/08/06 02:03:42;;;;;;;2.27;1.50;;;;;;;;;;4991954;28;20688;-73
2021/08/06 02:06:59;;;;;;;2.33;1.53;;;;;;;;;;5013246;28;20538;-73
2021/08/06 02:10:08;;;;;;;3.57;1.73;;;;;;;;;;4991949;28;20185;-73
2021/08/06 02:13:15;;;;;;;3.80;1.77;;;;;;;;;;4991875;28;20220;-73
2021/08/06 02:16:23;;;;;;;3.80;1.57;;;;;;;;;;5003019;28;20513;-73
2021/08/06 02:19:32;;;;;;;3.57;1.50;;;;;;;;;;5002685;28;20193;-73
2021/08/06 02:22:45;;;;;;;6.90;1.80;;;;;;;;;;4992384;28;20561;-73
2021/08/06 02:25:54;;;;;;;4.50;1.80;;;;;;;;;;5002054;28;20533;-73
2021/08/06 02:29:02;;;;;;;3.97;1.87;;;;;;;;;;5002600;28;20636;-73
2021/08/06 02:32:08;;;;;;;2.77;1.97;;;;;;;;;;5002418;28;20177;-73
2021/08/06 02:35:14;;;;;;;4.70;1.97;;;;;;;;;;5001988;28;20549;-73
2021/08/06 02:38:22;;;;;;;5.83;1.80;;;;;;;;;;5013540;28;20214;-73
2021/08/06 02:41:27;;;;;;;3.10;2.03;;;;;;;;;;5014023;28;20182;-73
2021/08/06 02:44:38;;;;;;;4.60;2.10;;;;;;;;;;5002206;28;20177;-73
2021/08/06 02:47:43;;;;;;;3.47;1.97;;;;;;;;;;4991451;28;20177;-73
2021/08/06 02:50:47;;;;;;;2.00;1.80;;;;;;;;;;5002103;28;20537;-73
2021/08/06 02:53:51;;;;;;;2.07;1.63;;;;;;;;;;5001964;28;20220;-73
2021/08/06 02:56:56;;;;;;;5.37;2.00;;;;;;;;;;5013779;28;20209;-73
2021/08/06 03:00:03;;;;;;;5.23;1.50;;;;;;;;;;5013337;28;20190;-73
2021/08/06 03:03:09;;;;;;;1.83;1.50;;;;;;;;;;5001814;28;20217;-73
2021/08/06 03:06:13;;;;;;;2.83;1.40;;;;;;;;;;5019383;22;20509;-75
2021/08/06 03:09:17;;;;;;;2.83;1.50;;;;;;;;;;5010159;28;20181;-75
2021/08/06 03:12:23;;;;;;;5.57;1.77;;;;;;;;;;5021053;28;20220;-75
2021/08/06 03:15:27;;;;;;;2.00;1.63;;;;;;;;;;5032237;28;20196;-75
2021/08/06 03:18:31;;;;;;;4.30;2.03;;;;;;;;;;5032553;28;20200;-75
2021/08/06 03:21:36;;;;;;;3.93;1.60;;;;;;;;;;5024648;28;20193;-75
2021/08/06 03:24:41;;;;;;;3.27;1.57;;;;;;;;;;5036330;28;20652;-75
2021/08/06 03:27:45;;;;;;;1.57;1.47;;;;;;;;;;5037515;28;20184;-75
2021/08/06 03:30:50;;;;;;;6.43;1.50;;;;;;;;;;5024491;28;20185;-75
2021/08/06 03:33:54;;;;;;;2.60;1.40;;;;;;;;;;5024877;28;20213;-75
2021/08/06 03:37:03;;;;;;;4.27;1.70;;;;;;;;;;5024757;28;20678;-75
2021/08/06 03:40:09;;;;;;;1.90;1.37;;;;;;;;;;5036087;28;20185;-75
2021/08/06 03:43:14;;;;;;;1.50;1.40;;;;;;;;;;5035877;28;20212;-75
2021/08/06 03:46:18;;;;;;;2.43;1.60;;;;;;;;;;5024734;28;20177;-75
2021/08/06 03:49:22;;;;;;;2.83;1.23;;;;;;;;;;5035509;28;20659;-75
2021/08/06 03:52:28;;;;;;;2.40;1.47;;;;;;;;;;5013251;28;20220;-76
2021/08/06 03:55:32;;;;;;;6.60;1.60;;;;;;;;;;5013076;28;20180;-75
2021/08/06 03:58:37;;;;;;;5.70;1.97;;;;;;;;;;5035262;28;20224;-76
2021/08/06 04:01:42;;;;;;;4.70;1.60;;;;;;;;;;5012890;28;20197;-76
2021/08/06 04:04:46;;;;;;;4.27;1.70;;;;;;;;;;5001833;28;20639;-75
2021/08/06 04:07:50;;;;;;;4.67;1.40;;;;;;;;;;5036057;28;20197;-76
2021/08/06 04:10:57;;;;;;;1.23;1.07;;;;;;;;;;5024714;28;20504;-76
2021/08/06 04:14:02;;;;;;;2.10;1.40;;;;;;;;;;5012497;28;20212;-75
2021/08/06 04:17:06;;;;;;;2.27;1.07;;;;;;;;;;5023483;28;20544;-75
2021/08/06 04:20:11;;;;;;;3.17;1.30;;;;;;;;;;5012834;28;20185;-75
2021/08/06 04:23:16;;;;;;;2.63;1.30;;;;;;;;;;5034688;28;20711;-75
2021/08/06 04:26:21;;;;;;;4.43;1.23;;;;;;;;;;5034959;28;20192;-75
2021/08/06 04:29:25;;;;;;;6.83;1.30;;;;;;;;;;5011811;28;20177;-75
2021/08/06 04:32:29;;;;;;;6.40;1.60;;;;;;;;;;5012049;28;20710;-75
2021/08/06 04:35:34;;;;;;;2.13;1.33;;;;;;;;;;5023238;28;20185;-75
2021/08/06 04:38:38;;;;;;;2.13;1.30;;;;;;;;;;5012113;28;20213;-75
2021/08/06 04:41:42;;;;;;;1.40;1.10;;;;;;;;;;5023513;28;20181;-75
2021/08/06 04:44:47;;;;;;;2.13;1.37;;;;;;;;;;5023131;28;20184;-75
2021/08/06 04:47:52;;;;;;;2.37;1.40;;;;;;;;;;5023243;28;20177;-75
2021/08/06 04:50:56;;;;;;;2.43;1.20;;;;;;;;;;5034645;28;20180;-74
2021/08/06 04:54:01;;;;;;;2.17;1.33;;;;;;;;;;5035278;28;20216;-75
2021/08/06 04:57:06;;;;;;;1.27;1.17;;;;;;;;;;5012001;28;20180;-75
2021/08/06 05:00:11;;;;;;;3.33;1.20;;;;;;;;;;5034186;28;20181;-75
2021/08/06 05:03:16;;;;;;;6.63;1.40;;;;;;;;;;5022968;28;20225;-75
2021/08/06 05:06:25;;;;;;;3.40;1.83;;;;;;;;;;5001465;28;20204;-75
2021/08/06 05:09:29;;;;;;;3.43;1.70;;;;;;;;;;5022575;28;20651;-75
2021/08/06 05:12:34;;;;;;;2.50;1.63;;;;;;;;;;5034906;28;20552;-75
2021/08/06 05:15:38;;;;;;;2.90;1.20;;;;;;;;;;5011341;28;20181;-75
2021/08/06 05:18:43;;;;;;;5.60;1.40;;;;;;;;;;5022176;28;20201;-75
2021/08/06 05:21:47;;;;;;;2.90;1.57;;;;;;;;;;5022587;28;20185;-75
2021/08/06 05:24:53;;;;;;;2.33;2.03;;;;;;;;;;5022363;28;20208;-76
2021/08/06 05:27:57;;;;;;;1.57;1.47;;;;;;;;;;5034710;28;20192;-76
2021/08/06 05:31:02;;;;;;;2.43;1.60;;;;;;;;;;5033906;28;20180;-76
2021/08/06 05:34:08;;;;;;;1.77;1.57;;;;;;;;;;5022340;28;20220;-76
2021/08/06 05:37:12;;;;;;;1.83;1.50;;;;;;;;;;5033638;28;20200;-75
2021/08/06 05:40:19;;;;;;;3.50;1.97;;;;;;;;;;5033670;28;20193;-76
2021/08/06 05:43:24;;;;;;;2.67;1.47;;;;;;;;;;5033131;28;20224;-75
2021/08/06 05:46:28;;;;;;;6.87;1.70;;;;;;;;;;5022258;28;20189;-76
2021/08/06 05:49:32;;;;;;;2.33;1.43;;;;;;;;;;5033186;28;20192;-76
2021/08/06 05:52:36;;;;;;;5.33;1.67;;;;;;;;;;5033077;28;20220;-75
2021/08/06 05:55:40;;;;;;;4.50;1.60;;;;;;;;;;5033683;28;20624;-76
2021/08/06 05:58:47;;;;;;;3.33;1.53;;;;;;;;;;5033087;28;20205;-76
2021/08/06 06:01:52;;;;;;;2.40;1.57;;;;;;;;;;5033592;28;20185;-75
2021/08/06 06:05:19;;;;;;;4.33;1.80;;;;;;;;;;5033712;28;20185;-76
2021/08/06 06:08:23;;;;;;;4.83;1.57;;;;;;;;;;5021873;28;20204;-76
2021/08/06 06:11:27;;;;;;;3.77;2.00;;;;;;;;;;5032850;28;20196;-75
2021/08/06 06:14:31;;;;;;;2.30;1.60;;;;;;;;;;5010641;28;20180;-75
2021/08/06 06:17:36;;;;;;;6.97;2.13;;;;;;;;;;5000201;28;20173;-74
2021/08/06 06:20:40;;;;;;;3.27;1.90;;;;;;;;;;5034950;28;20185;-75
2021/08/06 06:23:44;;;;;;;3.00;2.10;;;;;;;;;;5010335;28;20695;-76
2021/08/06 06:26:50;;;;;;;3.77;1.97;;;;;;;;;;5021599;28;20181;-75
2021/08/06 06:29:55;;;;;;;4.13;2.00;;;;;;;;;;5021429;28;20181;-76
2021/08/06 06:33:03;;;;;;;3.23;1.70;;;;;;;;;;5010254;28;20687;-76
2021/08/06 06:36:08;;;;;;;1.60;1.47;;;;;;;;;;5021727;28;20532;-75
2021/08/06 06:39:12;;;;;;;3.43;1.50;;;;;;;;;;5032278;28;20200;-75
2021/08/06 06:42:17;;;;;;;2.17;1.70;;;;;;;;;;5032737;28;20188;-76
2021/08/06 06:45:21;;;;;;;4.03;1.23;;;;;;;;;;5032774;28;20184;-76
2021/08/06 06:48:25;;;;;;;1.40;1.20;;;;;;;;;;5021482;28;20509;-75
2021/08/06 06:51:30;;;;;;;3.73;1.20;;;;;;;;;;5021372;28;20172;-75
2021/08/06 06:54:34;;;;;;;6.57;1.40;;;;;;;;;;5013750;28;20181;-75
2021/08/06 06:57:50;;;;;;;2.23;0.97;;;;;;;;;;5025268;28;20172;-75
2021/08/06 07:00:56;;;;;;;1.20;1.00;;;;;;;;;;5036444;28;20189;-75
2021/08/06 07:04:01;;;;;;;3.87;1.43;;;;;;;;;;5002450;28;20212;-75
2021/08/06 07:07:07;;;;;;;2.30;1.30;;;;;;;;;;5025108;28;20200;-75
2021/08/06 07:10:13;;;;;;;5.23;1.00;;;;;;;;;;5014306;28;20177;-75
2021/08/06 07:13:18;;;;;;;2.33;1.10;;;;;;;;;;5036483;28;20215;-75
2021/08/06 07:16:22;;;;;;;3.27;1.10;;;;;;;;;;5024763;28;20204;-75
2021/08/06 07:19:28;;;;;;;2.03;1.27;;;;;;;;;;5024376;28;20224;-75
2021/08/06 07:22:34;;;;;;;1.33;1.10;;;;;;;;;;5013844;28;20228;-75
2021/08/06 07:25:38;;;;;;;2.10;1.10;;;;;;;;;;5024853;28;20181;-75
2021/08/06 07:28:46;;;;;;;2.80;1.13;;;;;;;;;;5013259;28;20181;-75
2021/08/06 07:31:50;;;;;;;2.93;1.07;;;;;;;;;;5036115;28;20185;-75
2021/08/06 07:34:55;;;;;;;4.70;1.50;;;;;;;;;;5024427;28;20544;-75
2021/08/06 07:38:00;;;;;;;2.23;1.00;;;;;;;;;;5036615;28;20200;-75
2021/08/06 07:41:05;;;;;;;1.53;1.10;;;;;;;;;;5013011;28;20200;-75
2021/08/06 07:44:09;;;;;;;2.00;1.50;;;;;;;;;;5035741;28;20220;-75
2021/08/06 07:47:14;;;;;;;2.77;1.37;;;;;;;;;;5024434;28;20200;-76
2021/08/06 07:50:20;;;;;;;3.93;1.87;;;;;;;;;;5013642;28;20176;-74
2021/08/06 07:53:24;;;;;;;5.60;1.50;;;;;;;;;;5024322;28;20695;-75
2021/08/06 07:56:29;;;;;;;3.33;1.70;;;;;;;;;;5001729;28;20181;-75
2021/08/06 07:59:34;;;;;;;2.30;1.40;;;;;;;;;;5035260;28;20220;-75
2021/08/06 08:02:38;;;;;;;9.17;1.63;;;;;;;;;;5036601;28;20225;-75
2021/08/06 08:05:51;;;;;;;3.43;1.70;;;;;;;;;;5014723;28;20197;-75
2021/08/06 08:08:56;;;;;;;4.83;1.63;;;;;;;;;;5035491;28;20181;-75
2021/08/06 08:12:00;;;;;;;3.63;2.20;;;;;;;;;;5024266;28;20639;-76
2021/08/06 08:15:05;;;;;;;7.00;2.23;;;;;;;;;;5034999;28;20200;-75
2021/08/06 08:18:10;;;;;;;2.93;1.87;;;;;;;;;;5012288;28;20177;-75
2021/08/06 08:21:14;;;;;;;2.90;1.87;;;;;;;;;;5023888;28;20644;-76
2021/08/06 08:24:20;;;;;;;3.33;2.10;;;;;;;;;;5012436;28;20216;-76
2021/08/06 08:27:29;;;;;;;5.13;1.90;;;;;;;;;;5035090;28;20188;-76
2021/08/06 08:30:34;;;;;;;3.30;2.07;;;;;;;;;;5012128;28;20181;-76
2021/08/06 08:33:38;;;;;;;5.20;2.10;;;;;;;;;;5012052;28;20216;-76
2021/08/06 08:36:43;;;;;;;2.37;1.83;;;;;;;;;;5035255;28;20509;-76
2021/08/06 08:39:48;;;;;;;3.60;2.53;;;;;;;;;;5034294;28;20220;-75
2021/08/06 08:42:53;;;;;;;1.97;1.63;;;;;;;;;;5012197;28;20552;-76
2021/08/06 08:45:58;;;;;;;1.87;1.67;;;;;;;;;;5023141;28;20205;-76
2021/08/06 08:49:03;;;;;;;2.07;1.70;;;;;;;;;;5034767;28;20497;-76
2021/08/06 08:52:11;;;;;;;1.97;1.67;;;;;;;;;;5023709;28;20181;-76
2021/08/06 08:55:15;;;;;;;2.93;1.60;;;;;;;;;;5023178;28;20204;-76
2021/08/06 08:58:23;;;;;;;2.37;1.67;;;;;;;;;;5023332;28;20627;-75
2021/08/06 09:01:27;;;;;;;2.10;1.70;;;;;;;;;;5000588;28;20193;-75
2021/08/06 09:04:34;;;;;;;1.60;1.37;;;;;;;;;;5012596;28;20181;-75
2021/08/06 09:07:45;;;;;;;2.73;1.53;;;;;;;;;;5049982;23;20244;-89
2021/08/06 09:11:23;;;;;;;2.10;1.63;;;;;;;;;;5013097;28;20177;-89
2021/08/06 09:15:12;;;;;;;1.83;1.57;;;;;;;;;;5027318;28;20185;-89
2021/08/06 09:18:37;;;;;;;2.70;1.53;;;;;;;;;;5005340;28;20209;-89
2021/08/06 09:22:11;;;;;;;4.10;1.60;;;;;;;;;;5013441;28;20180;-89
2021/08/06 09:25:17;;;;;;;2.10;1.33;;;;;;;;;;4992640;28;20189;-88
2021/08/06 09:28:27;;;;;;;1.40;1.23;;;;;;;;;;5023429;28;20208;-88
2021/08/06 09:31:33;;;;;;;2.40;1.40;;;;;;;;;;5012202;28;20182;-88
2021/08/06 09:34:37;;;;;;;1.93;1.47;;;;;;;;;;5000608;28;20189;-89
2021/08/06 09:37:41;;;;;;;1.80;1.30;;;;;;;;;;5011715;28;20225;-89
2021/08/06 09:40:45;;;;;;;1.57;1.27;;;;;;;;;;5022422;28;20193;-89
2021/08/06 09:44:14;;;;;;;3.17;1.17;;;;;;;;;;5011405;28;20185;-88
2021/08/06 09:47:20;;;;;;;2.40;1.00;;;;;;;;;;5000230;28;20693;-88
2021/08/06 09:50:35;;;;;;;2.73;1.20;;;;;;;;;;5000432;28;20204;-88
2021/08/06 09:53:39;;;;;;;1.50;1.15;;;;;;;;;;5000325;28;20521;-88
2021/08/06 09:56:45;;;;;;;2.13;1.20;;;;;;;;;;4999934;28;20232;-88
2021/08/06 09:59:52;;;;;;;2.90;1.20;;;;;;;;;;4999729;28;20231;-88
2021/08/06 10:02:57;;;;;;;1.60;1.17;;;;;;;;;;5011510;28;20535;-88
2021/08/06 10:06:15;;;;;;;4.60;1.10;;;;;;;;;;5011879;28;20187;-88
2021/08/06 10:09:19;;;;;;;2.13;1.37;;;;;;;;;;5011342;28;20620;-88
2021/08/06 10:12:24;;;;;;;1.10;1.00;;;;;;;;;;5022974;28;20173;-89
2021/08/06 10:15:32;;;;;;;3.63;1.10;;;;;;;;;;5000501;28;20521;-88
2021/08/06 10:18:39;;;;;;;1.10;0.97;;;;;;;;;;4999840;28;20554;-88
2021/08/06 10:21:43;;;;;;;3.03;1.00;;;;;;;;;;5000372;28;20558;-89
2021/08/06 10:24:53;;;;;;;1.10;0.93;;;;;;;;;;5010857;28;20183;-88
2021/08/06 10:27:58;;;;;;;1.53;1.00;;;;;;;;;;5000316;28;20221;-88
2021/08/06 10:31:16;;;;;;;1.70;1.00;;;;;;;;;;5011190;28;20661;-88
2021/08/06 10:34:19;;;;;;;2.40;1.10;;;;;;;;;;5011614;28;20538;-89
2021/08/06 10:37:50;;;;;;;1.73;1.30;;;;;;;;;;5000553;28;20228;-88
2021/08/06 10:41:04;;;;;;;1.58;1.10;;;;;;;;;;5000705;28;20210;-89
2021/08/06 10:44:09;;;;;;;0.93;0.75;;;;;;;;;;5012870;28;20195;-89
2021/08/06 10:47:13;;;;;;;2.58;1.02;;;;;;;;;;5003646;28;20220;-89
2021/08/06 10:50:20;;;;;;;1.55;1.20;;;;;;;;;;5012143;28;20180;-89
2021/08/06 10:53:25;;;;;;;1.90;1.13;;;;;;;;;;5000243;28;20181;-89
2021/08/06 10:56:38;;;;;;;1.13;0.95;;;;;;;;;;5000969;28;20172;-88
2021/08/06 10:59:43;;;;;;;1.65;0.90;;;;;;;;;;5010795;28;20209;-89
2021/08/06 11:03:18;;;;;;;1.50;1.05;;;;;;;;;;5000399;28;20173;-89
2021/08/06 11:06:41;;;;;;;2.08;1.02;;;;;;;;;;5016769;28;20183;-88
2021/08/06 11:09:45;;;;;;;4.45;0.98;;;;;;;;;;4999288;28;20195;-89
2021/08/06 11:12:52;;;;;;;2.72;1.00;;;;;;;;;;5022836;28;20182;-89
2021/08/06 11:16:06;;;;;;;1.40;1.05;;;;;;;;;;5021939;28;20182;-89
2021/08/06 11:19:10;;;;;;;1.75;1.08;;;;;;;;;;5011116;28;20559;-88
2021/08/06 11:22:17;;;;;;;1.95;0.90;;;;;;;;;;5010400;28;20191;-89
2021/08/06 11:25:26;;;;;;;3.90;0.90;;;;;;;;;;5010183;28;20185;-89
2021/08/06 11:28:30;;;;;;;3.17;1.15;;;;;;;;;;5010115;28;20214;-89
2021/08/06 11:31:37;;;;;;;2.33;1.00;;;;;;;;;;4999426;28;20182;-88
2021/08/06 11:35:02;;;;;;;2.93;1.00;;;;;;;;;;4998943;28;20211;-88
2021/08/06 11:38:13;;;;;;;2.87;1.00;;;;;;;;;;5007612;23;20234;-76
2021/08/06 11:41:19;;;;;;;2.03;0.90;;;;;;;;;;5004304;28;20196;-76
2021/08/06 11:44:23;;;;;;;1.73;0.90;;;;;;;;;;5016823;28;20223;-76
2021/08/06 11:47:42;;;;;;;1.50;0.90;;;;;;;;;;5004536;28;20192;-77
2021/08/06 11:50:49;;;;;;;1.90;0.63;;;;;;;;;;5004775;28;20182;-76
2021/08/06 11:53:53;;;;;;;6.53;1.20;;;;;;;;;;4993322;28;20562;-76
2021/08/06 11:56:58;;;;;;;1.97;1.10;;;;;;;;;;5004649;28;20190;-76
2021/08/06 12:00:23;;;;;;;1.57;0.83;;;;;;;;;;5004372;28;20210;-76
2021/08/06 12:03:27;;;;;;;1.67;0.90;;;;;;;;;;4993364;28;20229;-76
2021/08/06 12:06:32;;;;;;;2.23;0.90;;;;;;;;;;5016660;28;20174;-76
2021/08/06 12:09:35;;;;;;;3.13;1.17;;;;;;;;;;5004128;28;20174;-76
2021/08/06 12:12:40;;;;;;;1.47;0.83;;;;;;;;;;5015246;28;20217;-76
2021/08/06 12:15:44;;;;;;;3.63;0.90;;;;;;;;;;5004136;28;20529;-75
2021/08/06 12:18:54;;;;;;;1.50;0.93;;;;;;;;;;5016428;28;20188;-75
2021/08/06 12:22:02;;;;;;;1.30;1.00;;;;;;;;;;5004494;28;20176;-75
2021/08/06 12:25:13;;;;;;;1.43;1.00;;;;;;;;;;5016194;28;20180;-75
2021/08/06 12:28:21;;;;;;;1.90;1.03;;;;;;;;;;4992898;28;20184;-75
2021/08/06 12:31:29;;;;;;;1.10;1.00;;;;;;;;;;5003907;28;20660;-75
2021/08/06 12:34:35;;;;;;;1.90;1.00;;;;;;;;;;5016022;28;20186;-75
2021/08/06 12:37:40;;;;;;;0.80;0.60;;;;;;;;;;5003541;28;20212;-75
2021/08/06 12:40:44;;;;;;;1.25;1.02;;;;;;;;;;5003525;28;20226;-75
2021/08/06 12:44:11;;;;;;;2.78;1.05;;;;;;;;;;5014944;28;20551;-75
2021/08/06 12:47:17;;;;;;;2.40;0.90;;;;;;;;;;5004375;28;20192;-76
2021/08/06 12:50:21;;;;;;;1.63;0.90;;;;;;;;;;5014938;28;20209;-76
2021/08/06 12:53:32;;;;;;;1.10;0.80;;;;;;;;;;5015617;28;20227;-76
2021/08/06 12:56:55;;;;;;;1.45;0.65;;;;;;;;;;5015656;28;20179;-76
2021/08/06 13:00:16;;;;;;;1.17;0.80;;;;;;;;;;5015659;28;20211;-76
2021/08/06 13:03:22;;;;;;;1.42;0.82;;;;;;;;;;5003303;28;20334;-76
2021/08/06 13:06:27;;;;;;;1.38;0.70;;;;;;;;;;5015394;28;20189;-76
2021/08/06 13:09:41;;;;;;;1.83;0.93;;;;;;;;;;4991904;28;20647;-76
2021/08/06 13:12:47;;;;;;;1.92;0.90;;;;;;;;;;5015274;28;20526;-76
2021/08/06 13:15:51;;;;;;;2.00;0.80;;;;;;;;;;4992224;28;20190;-76
2021/08/06 13:18:55;;;;;;;1.20;0.80;;;;;;;;;;5014214;28;20232;-76
2021/08/06 13:22:01;;;;;;;4.18;0.77;;;;;;;;;;5015615;28;20176;-76
2021/08/06 13:25:06;;;;;;;2.03;0.90;;;;;;;;;;5003141;28;20187;-76
2021/08/06 13:28:12;;;;;;;1.85;0.82;;;;;;;;;;5002707;28;20182;-76
2021/08/06 13:31:16;;;;;;;2.33;0.93;;;;;;;;;;5014933;28;20198;-76
2021/08/06 13:34:20;;;;;;;1.35;0.70;;;;;;;;;;5015076;28;20223;-76
2021/08/06 13:37:24;;;;;;;1.77;0.90;;;;;;;;;;5013899;28;20213;-76
2021/08/06 13:40:30;;;;;;;1.50;0.73;;;;;;;;;;5013878;28;20214;-76
2021/08/06 13:43:34;;;;;;;2.85;0.93;;;;;;;;;;5014927;28;20563;-76
2021/08/06 13:46:38;;;;;;;1.90;0.82;;;;;;;;;;5014711;28;20193;-76
2021/08/06 13:49:42;;;;;;;2.20;0.80;;;;;;;;;;5002693;28;20188;-77
2021/08/06 13:52:46;;;;;;;2.80;0.88;;;;;;;;;;5014834;28;20221;-76
2021/08/06 13:55:50;;;;;;;2.45;0.80;;;;;;;;;;5002589;28;20198;-76
2021/08/06 13:58:55;;;;;;;2.88;0.75;;;;;;;;;;5021960;28;20560;-76
2021/08/06 14:01:59;;;;;;;2.58;0.90;;;;;;;;;;5034366;28;20638;-76
2021/08/06 14:05:03;;;;;;;2.42;1.00;;;;;;;;;;5022589;28;20634;-76
2021/08/06 14:08:08;;;;;;;1.52;0.75;;;;;;;;;;5034659;28;20181;-76
2021/08/06 14:11:12;;;;;;;1.08;0.80;;;;;;;;;;5035066;28;20632;-76
2021/08/06 14:14:16;;;;;;;1.42;0.77;;;;;;;;;;5023147;28;20225;-76
2021/08/06 14:17:20;;;;;;;0.93;0.70;;;;;;;;;;5022660;28;20179;-76
2021/08/06 14:20:24;;;;;;;2.17;0.80;;;;;;;;;;5034710;28;20207;-76
2021/08/06 14:23:29;;;;;;;0.70;0.70;;;;;;;;;;5010880;28;20220;-76
2021/08/06 14:26:33;;;;;;;3.35;1.10;;;;;;;;;;5000439;28;20177;-76
2021/08/06 14:29:37;;;;;;;2.22;1.00;;;;;;;;;;5034825;28;20194;-77
2021/08/06 14:32:41;;;;;;;1.73;0.70;;;;;;;;;;5023028;28;20222;-77
2021/08/06 14:35:45;;;;;;;1.58;0.90;;;;;;;;;;5034032;28;20178;-77
2021/08/06 14:38:50;;;;;;;1.55;0.90;;;;;;;;;;5016911;28;20194;-76
2021/08/06 14:41:54;;;;;;;1.38;0.80;;;;;;;;;;5032997;28;20216;-76
2021/08/06 14:44:58;;;;;;;3.80;0.98;;;;;;;;;;5034237;28;20192;-76
2021/08/06 14:48:03;;;;;;;1.77;0.90;;;;;;;;;;5010786;28;20185;-76
2021/08/06 14:51:08;;;;;;;0.70;0.52;;;;;;;;;;5034468;28;20201;-76
2021/08/06 14:54:12;;;;;;;1.85;0.80;;;;;;;;;;5034248;28;20216;-77
2021/08/06 14:57:16;;;;;;;3.05;0.98;;;;;;;;;;5022364;28;20182;-76
2021/08/06 15:00:20;;;;;;;1.40;0.80;;;;;;;;;;5034284;28;20222;-77
2021/08/06 15:03:24;;;;;;;1.30;0.70;;;;;;;;;;5034598;28;20218;-77
2021/08/06 15:06:28;;;;;;;2.28;0.80;;;;;;;;;;5022714;28;20187;-76
2021/08/06 15:09:32;;;;;;;1.48;0.70;;;;;;;;;;5022073;28;20192;-77
2021/08/06 15:12:36;;;;;;;3.83;0.90;;;;;;;;;;4999042;28;20678;-76
2021/08/06 15:15:41;;;;;;;4.18;0.95;;;;;;;;;;5027048;28;20183;-77
2021/08/06 15:18:45;;;;;;;1.35;0.70;;;;;;;;;;5039964;28;20177;-77
2021/08/06 15:21:49;;;;;;;2.83;0.90;;;;;;;;;;5038470;28;20548;-76
2021/08/06 15:24:54;;;;;;;1.27;0.80;;;;;;;;;;5026356;28;20185;-76
2021/08/06 15:27:58;;;;;;;5.80;0.95;;;;;;;;;;5038782;28;20181;-77
2021/08/06 15:31:02;;;;;;;1.88;0.90;;;;;;;;;;5037054;28;20185;-76
2021/08/06 15:34:06;;;;;;;2.28;0.80;;;;;;;;;;5026029;28;20213;-77
2021/08/06 15:37:12;;;;;;;3.00;1.00;;;;;;;;;;5041033;28;20209;-77
2021/08/06 15:40:17;;;;;;;4.03;0.82;;;;;;;;;;5026701;28;20715;-77
2021/08/06 15:43:21;;;;;;;2.53;0.98;;;;;;;;;;5022928;28;20208;-76
2021/08/06 15:46:25;;;;;;;2.13;0.80;;;;;;;;;;5035063;28;20187;-76
2021/08/06 15:49:29;;;;;;;1.38;0.85;;;;;;;;;;5011499;28;20651;-76
2021/08/06 15:52:33;;;;;;;3.05;1.05;;;;;;;;;;5033655;28;20226;-77
2021/08/06 15:55:37;;;;;;;1.67;0.70;;;;;;;;;;5035971;28;20181;-76
2021/08/06 15:58:41;;;;;;;1.65;0.98;;;;;;;;;;5012598;28;20183;-77
2021/08/06 16:01:46;;;;;;;6.93;1.07;;;;;;;;;;5021837;28;20209;-76
2021/08/06 16:04:50;;;;;;;2.50;0.80;;;;;;;;;;5022401;28;20201;-76
2021/08/06 16:07:54;;;;;;;1.53;0.73;;;;;;;;;;5032355;28;20195;-76
2021/08/06 16:10:58;;;;;;;4.67;1.07;;;;;;;;;;5032495;28;20172;-76
2021/08/06 16:14:02;;;;;;;2.23;1.00;;;;;;;;;;5020309;28;20534;-77
2021/08/06 16:17:08;;;;;;;3.47;1.00;;;;;;;;;;5020168;28;20178;-76
2021/08/06 16:20:12;;;;;;;1.63;1.00;;;;;;;;;;5033047;28;20185;-77
2021/08/06 16:23:16;;;;;;;5.37;1.00;;;;;;;;;;5009907;28;20205;-77
2021/08/06 16:26:20;;;;;;;2.33;1.00;;;;;;;;;;5034079;28;20187;-77
2021/08/06 16:29:26;;;;;;;4.50;1.20;;;;;;;;;;5033173;28;20659;-76
2021/08/06 16:32:30;;;;;;;5.50;1.10;;;;;;;;;;5034376;28;20214;-77
2021/08/06 16:35:35;;;;;;;1.93;0.97;;;;;;;;;;5011285;28;20191;-76
2021/08/06 16:38:40;;;;;;;2.90;1.20;;;;;;;;;;5008776;28;20205;-76
2021/08/06 16:41:46;;;;;;;3.50;1.10;;;;;;;;;;5019354;28;20207;-76
2021/08/06 16:44:50;;;;;;;3.60;1.00;;;;;;;;;;5032185;28;20182;-76
2021/08/06 16:47:54;;;;;;;1.20;0.90;;;;;;;;;;5021546;28;20646;-76
2021/08/06 16:50:58;;;;;;;6.30;1.00;;;;;;;;;;5022983;28;20177;-77
2021/08/06 16:54:03;;;;;;;2.97;1.00;;;;;;;;;;5021862;28;20573;-77
2021/08/06 16:57:07;;;;;;;4.07;1.03;;;;;;;;;;5010165;28;20202;-77
2021/08/06 17:00:11;;;;;;;1.40;0.97;;;;;;;;;;5033675;28;20199;-77
2021/08/06 17:03:17;;;;;;;2.33;1.10;;;;;;;;;;5009598;28;20691;-76
2021/08/06 17:06:21;;;;;;;4.07;1.20;;;;;;;;;;5022021;28;20196;-76
2021/08/06 17:09:25;;;;;;;5.63;1.23;;;;;;;;;;5019962;28;20185;-76
2021/08/06 17:12:31;;;;;;;1.73;1.07;;;;;;;;;;5032354;28;20216;-76
2021/08/06 17:15:35;;;;;;;6.60;1.20;;;;;;;;;;5008554;28;20192;-76
2021/08/06 17:18:39;;;;;;;8.47;1.23;;;;;;;;;;5019540;28;20201;-76
2021/08/06 17:21:43;;;;;;;3.63;1.10;;;;;;;;;;5032626;28;20209;-77
2021/08/06 17:24:47;;;;;;;1.57;1.00;;;;;;;;;;5022819;28;20188;-77
2021/08/06 17:27:52;;;;;;;6.73;0.97;;;;;;;;;;5021362;28;20182;-77
2021/08/06 17:30:56;;;;;;;2.30;1.13;;;;;;;;;;4998925;28;20180;-77
2021/08/06 17:34:00;;;;;;;3.27;1.00;;;;;;;;;;5033819;28;20564;-77
2021/08/06 17:37:06;;;;;;;3.50;1.10;;;;;;;;;;5034033;28;20209;-77
2021/08/06 17:40:13;;;;;;;3.03;1.07;;;;;;;;;;5000801;28;20581;-77
2021/08/06 17:43:18;;;;;;;1.70;0.87;;;;;;;;;;5013091;28;20216;-77
2021/08/06 17:46:23;;;;;;;5.67;0.90;;;;;;;;;;5023124;28;20209;-77
2021/08/06 17:49:28;;;;;;;1.67;1.00;;;;;;;;;;5022468;28;20197;-77
2021/08/06 17:52:32;;;;;;;2.20;0.90;;;;;;;;;;5032950;28;20228;-77
2021/08/06 17:55:36;;;;;;;2.33;1.30;;;;;;;;;;5019811;28;20188;-76
2021/08/06 17:58:40;;;;;;;2.63;1.20;;;;;;;;;;4997424;28;20185;-76
2021/08/06 18:01:44;;;;;;;4.80;1.13;;;;;;;;;;5031368;28;20200;-76
2021/08/06 18:04:48;;;;;;;4.50;1.20;;;;;;;;;;5030008;28;20184;-77
2021/08/06 18:07:52;;;;;;;3.33;1.17;;;;;;;;;;5030117;28;20192;-76
2021/08/06 18:10:57;;;;;;;1.00;0.83;;;;;;;;;;5006668;28;20181;-76
2021/08/06 18:14:01;;;;;;;5.13;1.20;;;;;;;;;;5006596;28;20220;-76
2021/08/06 18:17:06;;;;;;;5.77;1.40;;;;;;;;;;5029889;28;20176;-76
2021/08/06 18:20:10;;;;;;;3.20;1.20;;;;;;;;;;5017909;28;20185;-76
2021/08/06 18:23:15;;;;;;;6.27;1.30;;;;;;;;;;4994979;28;20228;-76
2021/08/06 18:26:19;;;;;;;4.17;1.20;;;;;;;;;;4995504;28;20188;-76
2021/08/06 18:29:24;;;;;;;1.73;1.00;;;;;;;;;;5028744;28;20188;-76
2021/08/06 18:32:28;;;;;;;2.33;1.17;;;;;;;;;;5006310;28;20212;-76
2021/08/06 18:35:32;;;;;;;2.33;1.33;;;;;;;;;;5006265;28;20196;-76
2021/08/06 18:38:36;;;;;;;6.47;1.90;;;;;;;;;;5029695;28;20208;-76